sensor_id;sensor_type;location;lat;lon;timestamp;P1;durP1;ratioP1;P2;durP2;ratioP2
60068;SDS011;45945;53.350;55.922;2022-09-12T00:01:06;10.43;;;5.78;;
60068;SDS011;45945;53.350;55.922;2022-09-12T00:02:09;10.93;;;5.93;;
60068;SDS011;45945;53.350;55.922;2022-09-12T00:03:10;9.90;;;5.93;;
60068;SDS011;45945;53.350;55.922;2022-09-12T00:04:11;11.48;;;5.95;;
60068;SDS011;45945;53.350;55.922;2022-09-12T00:05:12;10.88;;;6.38;;
60068;SDS011;45945;53.350;55.922;2022-09-12T00:06:16;10.15;;;5.30;;
60068;SDS011;45945;53.350;55.922;2022-09-12T00:07:23;10.40;;;6.43;;
60068;SDS011;45945;53.350;55.922;2022-09-12T00:08:24;10.73;;;6.28;;
60068;SDS011;45945;53.350;55.922;2022-09-12T00:09:25;10.18;;;6.35;;
60068;SDS011;45945;53.350;55.922;2022-09-12T00:10:25;10.82;;;6.45;;
60068;SDS011;45945;53.350;55.922;2022-09-12T00:11:26;11.02;;;6.22;;
60068;SDS011;45945;53.350;55.922;2022-09-12T00:12:27;11.15;;;6.47;;
60068;SDS011;45945;53.350;55.922;2022-09-12T00:13:28;11.15;;;6.53;;
60068;SDS011;45945;53.350;55.922;2022-09-12T00:14:29;11.57;;;6.43;;
60068;SDS011;45945;53.350;55.922;2022-09-12T00:15:31;10.95;;;6.25;;
60068;SDS011;45945;53.350;55.922;2022-09-12T00:16:33;11.13;;;5.93;;
60068;SDS011;45945;53.350;55.922;2022-09-12T00:17:35;10.27;;;6.20;;
60068;SDS011;45945;53.350;55.922;2022-09-12T00:18:37;11.35;;;5.90;;
60068;SDS011;45945;53.350;55.922;2022-09-12T00:19:38;10.90;;;6.13;;
60068;SDS011;45945;53.350;55.922;2022-09-12T00:20:40;10.20;;;6.13;;
60068;SDS011;45945;53.350;55.922;2022-09-12T00:21:46;10.93;;;5.90;;
60068;SDS011;45945;53.350;55.922;2022-09-12T00:22:47;10.35;;;6.13;;
60068;SDS011;45945;53.350;55.922;2022-09-12T00:23:48;10.80;;;5.65;;
60068;SDS011;45945;53.350;55.922;2022-09-12T00:24:50;10.82;;;6.88;;
60068;SDS011;45945;53.350;55.922;2022-09-12T00:25:51;9.20;;;5.85;;
60068;SDS011;45945;53.350;55.922;2022-09-12T00:26:51;11.85;;;6.07;;
60068;SDS011;45945;53.350;55.922;2022-09-12T00:27:53;10.50;;;6.15;;
60068;SDS011;45945;53.350;55.922;2022-09-12T00:28:53;9.77;;;5.63;;
60068;SDS011;45945;53.350;55.922;2022-09-12T00:29:54;11.32;;;6.10;;
60068;SDS011;45945;53.350;55.922;2022-09-12T00:30:55;10.75;;;5.55;;
60068;SDS011;45945;53.350;55.922;2022-09-12T00:31:56;11.48;;;6.18;;
60068;SDS011;45945;53.350;55.922;2022-09-12T00:32:57;9.85;;;5.20;;
60068;SDS011;45945;53.350;55.922;2022-09-12T00:33:58;11.15;;;5.82;;
60068;SDS011;45945;53.350;55.922;2022-09-12T00:35:03;10.00;;;5.30;;
60068;SDS011;45945;53.350;55.922;2022-09-12T00:36:05;10.38;;;6.10;;
60068;SDS011;45945;53.350;55.922;2022-09-12T00:37:10;11.70;;;5.78;;
60068;SDS011;45945;53.350;55.922;2022-09-12T00:38:11;10.25;;;5.63;;
60068;SDS011;45945;53.350;55.922;2022-09-12T00:39:16;11.80;;;6.07;;
60068;SDS011;45945;53.350;55.922;2022-09-12T00:40:17;9.07;;;5.38;;
60068;SDS011;45945;53.350;55.922;2022-09-12T00:41:19;10.40;;;5.93;;
60068;SDS011;45945;53.350;55.922;2022-09-12T00:42:21;11.00;;;5.78;;
60068;SDS011;45945;53.350;55.922;2022-09-12T00:45:34;9.45;;;5.25;;
60068;SDS011;45945;53.350;55.922;2022-09-12T00:46:40;12.75;;;5.97;;
60068;SDS011;45945;53.350;55.922;2022-09-12T00:47:49;10.00;;;5.05;;
60068;SDS011;45945;53.350;55.922;2022-09-12T00:49:00;10.50;;;5.03;;
60068;SDS011;45945;53.350;55.922;2022-09-12T00:50:06;10.00;;;5.78;;
60068;SDS011;45945;53.350;55.922;2022-09-12T00:51:10;10.40;;;5.82;;
60068;SDS011;45945;53.350;55.922;2022-09-12T00:52:13;10.55;;;5.30;;
60068;SDS011;45945;53.350;55.922;2022-09-12T00:53:17;8.95;;;5.53;;
60068;SDS011;45945;53.350;55.922;2022-09-12T00:54:20;10.68;;;5.93;;
60068;SDS011;45945;53.350;55.922;2022-09-12T00:55:35;11.43;;;4.95;;
60068;SDS011;45945;53.350;55.922;2022-09-12T00:56:41;9.32;;;5.80;;
60068;SDS011;45945;53.350;55.922;2022-09-12T00:57:52;8.52;;;4.47;;
60068;SDS011;45945;53.350;55.922;2022-09-12T00:58:59;9.50;;;5.07;;
60068;SDS011;45945;53.350;55.922;2022-09-12T01:00:06;9.93;;;4.85;;
60068;SDS011;45945;53.350;55.922;2022-09-12T01:01:15;10.07;;;5.15;;
60068;SDS011;45945;53.350;55.922;2022-09-12T01:02:16;11.25;;;5.80;;
60068;SDS011;45945;53.350;55.922;2022-09-12T01:03:18;10.00;;;5.97;;
60068;SDS011;45945;53.350;55.922;2022-09-12T01:04:22;10.23;;;4.88;;
60068;SDS011;45945;53.350;55.922;2022-09-12T01:05:24;12.00;;;5.88;;
60068;SDS011;45945;53.350;55.922;2022-09-12T01:06:28;10.30;;;5.68;;
60068;SDS011;45945;53.350;55.922;2022-09-12T01:07:35;10.38;;;5.45;;
60068;SDS011;45945;53.350;55.922;2022-09-12T01:08:37;9.02;;;5.35;;
60068;SDS011;45945;53.350;55.922;2022-09-12T01:09:41;9.50;;;5.25;;
60068;SDS011;45945;53.350;55.922;2022-09-12T01:10:44;10.38;;;5.40;;
60068;SDS011;45945;53.350;55.922;2022-09-12T01:11:46;8.35;;;4.32;;
60068;SDS011;45945;53.350;55.922;2022-09-12T01:12:49;10.30;;;5.28;;
60068;SDS011;45945;53.350;55.922;2022-09-12T01:13:50;8.10;;;5.20;;
60068;SDS011;45945;53.350;55.922;2022-09-12T01:14:51;9.23;;;5.30;;
60068;SDS011;45945;53.350;55.922;2022-09-12T01:15:52;10.15;;;5.50;;
60068;SDS011;45945;53.350;55.922;2022-09-12T01:16:53;9.55;;;5.88;;
60068;SDS011;45945;53.350;55.922;2022-09-12T01:17:59;8.70;;;4.43;;
60068;SDS011;45945;53.350;55.922;2022-09-12T01:25:59;10.15;;;5.70;;
60068;SDS011;45945;53.350;55.922;2022-09-12T01:30:21;10.98;;;6.03;;
60068;SDS011;45945;53.350;55.922;2022-09-12T01:31:57;10.13;;;5.07;;
60068;SDS011;45945;53.350;55.922;2022-09-12T01:39:03;13.20;;;5.53;;
60068;SDS011;45945;53.350;55.922;2022-09-12T01:41:14;9.80;;;5.57;;
60068;SDS011;45945;53.350;55.922;2022-09-12T01:41:51;11.88;;;6.20;;
60068;SDS011;45945;53.350;55.922;2022-09-12T01:43:06;9.88;;;5.75;;
60068;SDS011;45945;53.350;55.922;2022-09-12T01:45:52;10.73;;;5.57;;
60068;SDS011;45945;53.350;55.922;2022-09-12T01:47:14;9.38;;;5.32;;
60068;SDS011;45945;53.350;55.922;2022-09-12T01:50:56;10.20;;;5.82;;
60068;SDS011;45945;53.350;55.922;2022-09-12T01:53:19;9.38;;;5.47;;
60068;SDS011;45945;53.350;55.922;2022-09-12T01:54:26;10.57;;;6.47;;
60068;SDS011;45945;53.350;55.922;2022-09-12T01:55:47;11.23;;;5.88;;
60068;SDS011;45945;53.350;55.922;2022-09-12T01:57:05;10.00;;;5.65;;
60068;SDS011;45945;53.350;55.922;2022-09-12T01:58:14;8.93;;;5.25;;
60068;SDS011;45945;53.350;55.922;2022-09-12T01:59:32;9.73;;;5.70;;
60068;SDS011;45945;53.350;55.922;2022-09-12T02:00:37;10.35;;;5.60;;
60068;SDS011;45945;53.350;55.922;2022-09-12T02:01:55;10.35;;;5.70;;
60068;SDS011;45945;53.350;55.922;2022-09-12T02:03:22;10.18;;;5.70;;
60068;SDS011;45945;53.350;55.922;2022-09-12T02:04:31;9.85;;;5.10;;
60068;SDS011;45945;53.350;55.922;2022-09-12T02:07:53;11.27;;;5.90;;
60068;SDS011;45945;53.350;55.922;2022-09-12T02:09:17;9.70;;;5.65;;
60068;SDS011;45945;53.350;55.922;2022-09-12T02:10:24;9.77;;;5.35;;
60068;SDS011;45945;53.350;55.922;2022-09-12T02:11:30;11.57;;;6.28;;
60068;SDS011;45945;53.350;55.922;2022-09-12T02:12:37;10.43;;;6.03;;
60068;SDS011;45945;53.350;55.922;2022-09-12T02:14:04;9.77;;;5.43;;
60068;SDS011;45945;53.350;55.922;2022-09-12T02:15:08;10.55;;;6.35;;
60068;SDS011;45945;53.350;55.922;2022-09-12T02:16:15;9.85;;;5.20;;
60068;SDS011;45945;53.350;55.922;2022-09-12T02:17:25;11.65;;;5.18;;
60068;SDS011;45945;53.350;55.922;2022-09-12T02:18:26;11.02;;;6.68;;
60068;SDS011;45945;53.350;55.922;2022-09-12T02:19:33;11.57;;;6.03;;
60068;SDS011;45945;53.350;55.922;2022-09-12T02:20:40;10.40;;;5.82;;
60068;SDS011;45945;53.350;55.922;2022-09-12T02:22:00;9.30;;;5.70;;
60068;SDS011;45945;53.350;55.922;2022-09-12T02:23:08;10.50;;;5.40;;
60068;SDS011;45945;53.350;55.922;2022-09-12T02:24:16;10.43;;;5.32;;
60068;SDS011;45945;53.350;55.922;2022-09-12T02:25:20;11.00;;;6.03;;
60068;SDS011;45945;53.350;55.922;2022-09-12T02:26:35;11.48;;;6.28;;
60068;SDS011;45945;53.350;55.922;2022-09-12T02:27:42;13.52;;;6.25;;
60068;SDS011;45945;53.350;55.922;2022-09-12T02:28:48;10.95;;;5.65;;
60068;SDS011;45945;53.350;55.922;2022-09-12T02:29:49;9.82;;;6.07;;
60068;SDS011;45945;53.350;55.922;2022-09-12T02:32:49;10.80;;;6.07;;
60068;SDS011;45945;53.350;55.922;2022-09-12T02:35:46;10.68;;;6.00;;
60068;SDS011;45945;53.350;55.922;2022-09-12T02:38:06;11.27;;;6.20;;
60068;SDS011;45945;53.350;55.922;2022-09-12T02:39:16;9.93;;;5.70;;
60068;SDS011;45945;53.350;55.922;2022-09-12T02:40:20;11.95;;;5.95;;
60068;SDS011;45945;53.350;55.922;2022-09-12T02:41:22;9.70;;;5.85;;
60068;SDS011;45945;53.350;55.922;2022-09-12T02:42:24;11.45;;;6.20;;
60068;SDS011;45945;53.350;55.922;2022-09-12T02:43:25;10.30;;;5.93;;
60068;SDS011;45945;53.350;55.922;2022-09-12T02:44:27;9.98;;;6.03;;
60068;SDS011;45945;53.350;55.922;2022-09-12T02:45:30;10.00;;;5.78;;
60068;SDS011;45945;53.350;55.922;2022-09-12T02:46:43;9.60;;;5.60;;
60068;SDS011;45945;53.350;55.922;2022-09-12T02:49:59;10.38;;;5.45;;
60068;SDS011;45945;53.350;55.922;2022-09-12T02:51:01;10.70;;;5.90;;
60068;SDS011;45945;53.350;55.922;2022-09-12T02:52:03;10.50;;;5.65;;
60068;SDS011;45945;53.350;55.922;2022-09-12T02:53:04;9.50;;;5.55;;
60068;SDS011;45945;53.350;55.922;2022-09-12T02:54:07;9.88;;;5.78;;
60068;SDS011;45945;53.350;55.922;2022-09-12T02:55:09;9.82;;;5.22;;
60068;SDS011;45945;53.350;55.922;2022-09-12T02:56:15;11.52;;;6.22;;
60068;SDS011;45945;53.350;55.922;2022-09-12T02:57:22;9.95;;;5.85;;
60068;SDS011;45945;53.350;55.922;2022-09-12T02:58:25;10.90;;;5.85;;
60068;SDS011;45945;53.350;55.922;2022-09-12T02:59:28;9.50;;;6.07;;
60068;SDS011;45945;53.350;55.922;2022-09-12T03:00:30;12.02;;;6.18;;
60068;SDS011;45945;53.350;55.922;2022-09-12T03:07:45;9.10;;;5.70;;
60068;SDS011;45945;53.350;55.922;2022-09-12T03:09:19;8.77;;;4.90;;
60068;SDS011;45945;53.350;55.922;2022-09-12T03:14:59;9.45;;;5.35;;
60068;SDS011;45945;53.350;55.922;2022-09-12T03:16:16;8.98;;;5.35;;
60068;SDS011;45945;53.350;55.922;2022-09-12T03:23:23;9.63;;;5.80;;
60068;SDS011;45945;53.350;55.922;2022-09-12T03:28:10;9.57;;;5.35;;
60068;SDS011;45945;53.350;55.922;2022-09-12T03:29:13;10.43;;;5.53;;
60068;SDS011;45945;53.350;55.922;2022-09-12T03:30:15;9.68;;;5.40;;
60068;SDS011;45945;53.350;55.922;2022-09-12T03:31:17;10.38;;;6.35;;
60068;SDS011;45945;53.350;55.922;2022-09-12T03:32:19;10.38;;;5.95;;
60068;SDS011;45945;53.350;55.922;2022-09-12T03:33:21;9.13;;;5.93;;
60068;SDS011;45945;53.350;55.922;2022-09-12T03:34:24;11.48;;;6.40;;
60068;SDS011;45945;53.350;55.922;2022-09-12T03:35:26;10.30;;;5.90;;
60068;SDS011;45945;53.350;55.922;2022-09-12T03:36:28;10.73;;;5.55;;
60068;SDS011;45945;53.350;55.922;2022-09-12T03:37:29;9.10;;;5.60;;
60068;SDS011;45945;53.350;55.922;2022-09-12T03:38:30;10.60;;;5.95;;
60068;SDS011;45945;53.350;55.922;2022-09-12T03:39:31;9.32;;;5.78;;
60068;SDS011;45945;53.350;55.922;2022-09-12T03:40:33;9.80;;;6.18;;
60068;SDS011;45945;53.350;55.922;2022-09-12T03:41:35;9.98;;;5.80;;
60068;SDS011;45945;53.350;55.922;2022-09-12T03:42:37;10.50;;;6.10;;
60068;SDS011;45945;53.350;55.922;2022-09-12T03:43:38;9.18;;;5.32;;
60068;SDS011;45945;53.350;55.922;2022-09-12T03:44:39;9.90;;;5.35;;
60068;SDS011;45945;53.350;55.922;2022-09-12T03:45:40;9.50;;;5.00;;
60068;SDS011;45945;53.350;55.922;2022-09-12T03:46:41;9.07;;;5.07;;
60068;SDS011;45945;53.350;55.922;2022-09-12T03:47:42;9.98;;;5.93;;
60068;SDS011;45945;53.350;55.922;2022-09-12T03:48:43;9.43;;;4.75;;
60068;SDS011;45945;53.350;55.922;2022-09-12T03:49:44;8.68;;;4.95;;
60068;SDS011;45945;53.350;55.922;2022-09-12T03:50:46;8.55;;;4.68;;
60068;SDS011;45945;53.350;55.922;2022-09-12T03:51:47;8.98;;;5.13;;
60068;SDS011;45945;53.350;55.922;2022-09-12T03:52:48;8.82;;;5.35;;
60068;SDS011;45945;53.350;55.922;2022-09-12T03:53:49;10.25;;;5.65;;
60068;SDS011;45945;53.350;55.922;2022-09-12T03:54:50;8.02;;;4.90;;
60068;SDS011;45945;53.350;55.922;2022-09-12T03:55:51;9.82;;;4.63;;
60068;SDS011;45945;53.350;55.922;2022-09-12T03:56:52;7.85;;;4.57;;
60068;SDS011;45945;53.350;55.922;2022-09-12T03:57:53;10.00;;;5.28;;
60068;SDS011;45945;53.350;55.922;2022-09-12T03:58:55;9.93;;;5.45;;
60068;SDS011;45945;53.350;55.922;2022-09-12T03:59:57;9.20;;;4.68;;
60068;SDS011;45945;53.350;55.922;2022-09-12T04:00:58;9.05;;;5.30;;
60068;SDS011;45945;53.350;55.922;2022-09-12T04:01:59;9.05;;;5.25;;
60068;SDS011;45945;53.350;55.922;2022-09-12T04:03:00;8.63;;;5.25;;
60068;SDS011;45945;53.350;55.922;2022-09-12T04:04:01;9.40;;;5.15;;
60068;SDS011;45945;53.350;55.922;2022-09-12T04:05:02;8.98;;;5.22;;
60068;SDS011;45945;53.350;55.922;2022-09-12T04:06:04;10.00;;;5.30;;
60068;SDS011;45945;53.350;55.922;2022-09-12T04:07:05;8.95;;;5.30;;
60068;SDS011;45945;53.350;55.922;2022-09-12T04:08:09;8.85;;;5.43;;
60068;SDS011;45945;53.350;55.922;2022-09-12T04:09:13;8.13;;;4.88;;
60068;SDS011;45945;53.350;55.922;2022-09-12T04:10:13;7.88;;;4.80;;
60068;SDS011;45945;53.350;55.922;2022-09-12T04:11:15;8.82;;;5.28;;
60068;SDS011;45945;53.350;55.922;2022-09-12T04:12:16;9.88;;;5.40;;
60068;SDS011;45945;53.350;55.922;2022-09-12T04:13:17;9.18;;;5.35;;
60068;SDS011;45945;53.350;55.922;2022-09-12T04:14:18;8.43;;;4.80;;
60068;SDS011;45945;53.350;55.922;2022-09-12T04:15:19;8.77;;;5.53;;
60068;SDS011;45945;53.350;55.922;2022-09-12T04:16:20;8.07;;;4.65;;
60068;SDS011;45945;53.350;55.922;2022-09-12T04:17:21;8.90;;;5.20;;
60068;SDS011;45945;53.350;55.922;2022-09-12T04:18:22;9.30;;;5.10;;
60068;SDS011;45945;53.350;55.922;2022-09-12T04:19:24;10.10;;;5.68;;
60068;SDS011;45945;53.350;55.922;2022-09-12T04:20:25;8.50;;;5.22;;
60068;SDS011;45945;53.350;55.922;2022-09-12T04:21:26;9.35;;;5.65;;
60068;SDS011;45945;53.350;55.922;2022-09-12T04:22:27;7.88;;;4.47;;
60068;SDS011;45945;53.350;55.922;2022-09-12T04:23:29;8.50;;;5.25;;
60068;SDS011;45945;53.350;55.922;2022-09-12T04:24:30;9.55;;;5.43;;
60068;SDS011;45945;53.350;55.922;2022-09-12T04:25:31;8.48;;;5.30;;
60068;SDS011;45945;53.350;55.922;2022-09-12T04:26:32;9.32;;;5.63;;
60068;SDS011;45945;53.350;55.922;2022-09-12T04:27:33;9.20;;;5.22;;
60068;SDS011;45945;53.350;55.922;2022-09-12T04:28:35;8.23;;;5.55;;
60068;SDS011;45945;53.350;55.922;2022-09-12T04:29:37;8.57;;;5.28;;
60068;SDS011;45945;53.350;55.922;2022-09-12T04:30:38;8.65;;;5.60;;
60068;SDS011;45945;53.350;55.922;2022-09-12T04:31:39;8.70;;;4.63;;
60068;SDS011;45945;53.350;55.922;2022-09-12T04:32:40;8.05;;;4.95;;
60068;SDS011;45945;53.350;55.922;2022-09-12T04:33:42;9.45;;;5.15;;
60068;SDS011;45945;53.350;55.922;2022-09-12T04:34:44;7.93;;;5.03;;
60068;SDS011;45945;53.350;55.922;2022-09-12T04:35:46;10.73;;;5.78;;
60068;SDS011;45945;53.350;55.922;2022-09-12T04:36:48;9.15;;;5.50;;
60068;SDS011;45945;53.350;55.922;2022-09-12T04:37:49;8.85;;;5.30;;
60068;SDS011;45945;53.350;55.922;2022-09-12T04:38:50;10.57;;;5.32;;
60068;SDS011;45945;53.350;55.922;2022-09-12T04:39:51;8.65;;;4.90;;
60068;SDS011;45945;53.350;55.922;2022-09-12T04:40:56;8.70;;;5.07;;
60068;SDS011;45945;53.350;55.922;2022-09-12T04:41:58;8.75;;;5.07;;
60068;SDS011;45945;53.350;55.922;2022-09-12T04:42:59;8.40;;;5.03;;
60068;SDS011;45945;53.350;55.922;2022-09-12T04:44:04;8.43;;;5.18;;
60068;SDS011;45945;53.350;55.922;2022-09-12T04:45:07;9.80;;;5.35;;
60068;SDS011;45945;53.350;55.922;2022-09-12T04:46:10;9.07;;;4.97;;
60068;SDS011;45945;53.350;55.922;2022-09-12T04:47:12;8.52;;;5.25;;
60068;SDS011;45945;53.350;55.922;2022-09-12T04:48:13;8.57;;;4.70;;
60068;SDS011;45945;53.350;55.922;2022-09-12T04:49:14;8.98;;;5.32;;
60068;SDS011;45945;53.350;55.922;2022-09-12T04:50:16;9.48;;;6.30;;
60068;SDS011;45945;53.350;55.922;2022-09-12T04:51:19;9.13;;;5.95;;
60068;SDS011;45945;53.350;55.922;2022-09-12T04:52:22;8.77;;;6.10;;
60068;SDS011;45945;53.350;55.922;2022-09-12T04:53:23;8.90;;;5.38;;
60068;SDS011;45945;53.350;55.922;2022-09-12T04:54:24;9.93;;;5.90;;
60068;SDS011;45945;53.350;55.922;2022-09-12T04:55:25;9.30;;;5.53;;
60068;SDS011;45945;53.350;55.922;2022-09-12T04:56:27;8.93;;;5.88;;
60068;SDS011;45945;53.350;55.922;2022-09-12T04:57:29;11.38;;;7.32;;
60068;SDS011;45945;53.350;55.922;2022-09-12T04:58:30;10.50;;;5.95;;
60068;SDS011;45945;53.350;55.922;2022-09-12T04:59:33;8.85;;;5.22;;
60068;SDS011;45945;53.350;55.922;2022-09-12T05:00:34;9.63;;;5.95;;
60068;SDS011;45945;53.350;55.922;2022-09-12T05:01:35;8.98;;;5.68;;
60068;SDS011;45945;53.350;55.922;2022-09-12T05:02:36;11.85;;;5.65;;
60068;SDS011;45945;53.350;55.922;2022-09-12T05:03:38;9.65;;;5.93;;
60068;SDS011;45945;53.350;55.922;2022-09-12T05:04:42;9.88;;;6.22;;
60068;SDS011;45945;53.350;55.922;2022-09-12T05:05:43;9.35;;;5.60;;
60068;SDS011;45945;53.350;55.922;2022-09-12T05:06:44;10.02;;;4.95;;
60068;SDS011;45945;53.350;55.922;2022-09-12T05:07:46;8.63;;;5.25;;
60068;SDS011;45945;53.350;55.922;2022-09-12T05:08:48;7.80;;;4.60;;
60068;SDS011;45945;53.350;55.922;2022-09-12T05:09:50;9.30;;;5.10;;
60068;SDS011;45945;53.350;55.922;2022-09-12T05:10:51;8.18;;;4.97;;
60068;SDS011;45945;53.350;55.922;2022-09-12T05:11:52;8.50;;;4.47;;
60068;SDS011;45945;53.350;55.922;2022-09-12T05:12:53;9.68;;;5.15;;
60068;SDS011;45945;53.350;55.922;2022-09-12T05:13:54;8.05;;;4.78;;
60068;SDS011;45945;53.350;55.922;2022-09-12T05:14:55;11.82;;;4.93;;
60068;SDS011;45945;53.350;55.922;2022-09-12T05:15:57;8.63;;;5.30;;
60068;SDS011;45945;53.350;55.922;2022-09-12T05:17:00;7.93;;;4.57;;
60068;SDS011;45945;53.350;55.922;2022-09-12T05:18:01;10.45;;;5.18;;
60068;SDS011;45945;53.350;55.922;2022-09-12T05:19:02;8.23;;;5.07;;
60068;SDS011;45945;53.350;55.922;2022-09-12T05:20:04;7.80;;;5.10;;
60068;SDS011;45945;53.350;55.922;2022-09-12T05:21:06;8.23;;;4.63;;
60068;SDS011;45945;53.350;55.922;2022-09-12T05:22:08;6.93;;;3.80;;
60068;SDS011;45945;53.350;55.922;2022-09-12T05:23:10;8.25;;;4.82;;
60068;SDS011;45945;53.350;55.922;2022-09-12T05:24:11;8.40;;;4.30;;
60068;SDS011;45945;53.350;55.922;2022-09-12T05:25:12;6.90;;;4.18;;
60068;SDS011;45945;53.350;55.922;2022-09-12T05:26:14;7.32;;;4.35;;
60068;SDS011;45945;53.350;55.922;2022-09-12T05:27:16;8.10;;;5.57;;
60068;SDS011;45945;53.350;55.922;2022-09-12T05:28:18;8.13;;;4.63;;
60068;SDS011;45945;53.350;55.922;2022-09-12T05:29:20;7.18;;;4.65;;
60068;SDS011;45945;53.350;55.922;2022-09-12T05:30:21;7.90;;;5.00;;
60068;SDS011;45945;53.350;55.922;2022-09-12T05:31:24;8.18;;;4.80;;
60068;SDS011;45945;53.350;55.922;2022-09-12T05:32:29;7.93;;;4.78;;
60068;SDS011;45945;53.350;55.922;2022-09-12T05:33:32;7.43;;;4.95;;
60068;SDS011;45945;53.350;55.922;2022-09-12T05:34:35;7.72;;;4.80;;
60068;SDS011;45945;53.350;55.922;2022-09-12T05:35:37;7.70;;;5.07;;
60068;SDS011;45945;53.350;55.922;2022-09-12T05:36:40;7.85;;;4.70;;
60068;SDS011;45945;53.350;55.922;2022-09-12T05:37:41;9.38;;;5.05;;
60068;SDS011;45945;53.350;55.922;2022-09-12T05:38:42;8.13;;;4.82;;
60068;SDS011;45945;53.350;55.922;2022-09-12T05:39:44;7.53;;;4.72;;
60068;SDS011;45945;53.350;55.922;2022-09-12T05:40:45;9.57;;;5.20;;
60068;SDS011;45945;53.350;55.922;2022-09-12T05:41:46;8.88;;;4.80;;
60068;SDS011;45945;53.350;55.922;2022-09-12T05:42:47;9.18;;;5.10;;
60068;SDS011;45945;53.350;55.922;2022-09-12T05:43:51;8.25;;;5.32;;
60068;SDS011;45945;53.350;55.922;2022-09-12T05:44:54;8.90;;;4.82;;
60068;SDS011;45945;53.350;55.922;2022-09-12T05:46:05;9.25;;;5.20;;
60068;SDS011;45945;53.350;55.922;2022-09-12T05:47:10;9.38;;;5.22;;
60068;SDS011;45945;53.350;55.922;2022-09-12T05:48:11;8.25;;;4.82;;
60068;SDS011;45945;53.350;55.922;2022-09-12T05:49:13;8.27;;;5.10;;
60068;SDS011;45945;53.350;55.922;2022-09-12T05:50:14;7.95;;;5.05;;
60068;SDS011;45945;53.350;55.922;2022-09-12T05:51:19;7.57;;;4.45;;
60068;SDS011;45945;53.350;55.922;2022-09-12T05:52:26;7.20;;;4.68;;
60068;SDS011;45945;53.350;55.922;2022-09-12T05:53:27;8.00;;;4.47;;
60068;SDS011;45945;53.350;55.922;2022-09-12T05:54:29;8.20;;;5.13;;
60068;SDS011;45945;53.350;55.922;2022-09-12T05:55:30;7.70;;;4.88;;
60068;SDS011;45945;53.350;55.922;2022-09-12T05:56:33;8.57;;;5.60;;
60068;SDS011;45945;53.350;55.922;2022-09-12T05:57:38;8.98;;;5.35;;
60068;SDS011;45945;53.350;55.922;2022-09-12T05:58:41;7.35;;;4.70;;
60068;SDS011;45945;53.350;55.922;2022-09-12T05:59:51;9.02;;;5.55;;
60068;SDS011;45945;53.350;55.922;2022-09-12T06:00:53;7.53;;;4.97;;
60068;SDS011;45945;53.350;55.922;2022-09-12T06:01:55;8.45;;;5.15;;
60068;SDS011;45945;53.350;55.922;2022-09-12T06:02:56;6.88;;;4.50;;
60068;SDS011;45945;53.350;55.922;2022-09-12T06:03:58;7.25;;;4.72;;
60068;SDS011;45945;53.350;55.922;2022-09-12T06:05:01;8.90;;;5.10;;
60068;SDS011;45945;53.350;55.922;2022-09-12T06:06:03;7.82;;;5.05;;
60068;SDS011;45945;53.350;55.922;2022-09-12T06:07:05;9.68;;;4.82;;
60068;SDS011;45945;53.350;55.922;2022-09-12T06:08:06;8.63;;;5.05;;
60068;SDS011;45945;53.350;55.922;2022-09-12T06:09:07;8.25;;;5.40;;
60068;SDS011;45945;53.350;55.922;2022-09-12T06:10:09;8.40;;;5.63;;
60068;SDS011;45945;53.350;55.922;2022-09-12T06:11:12;8.93;;;5.32;;
60068;SDS011;45945;53.350;55.922;2022-09-12T06:12:15;8.35;;;4.65;;
60068;SDS011;45945;53.350;55.922;2022-09-12T06:13:16;7.70;;;4.93;;
60068;SDS011;45945;53.350;55.922;2022-09-12T06:14:17;7.95;;;5.03;;
60068;SDS011;45945;53.350;55.922;2022-09-12T06:15:19;7.53;;;4.70;;
60068;SDS011;45945;53.350;55.922;2022-09-12T06:16:20;9.35;;;5.25;;
60068;SDS011;45945;53.350;55.922;2022-09-12T06:17:26;8.90;;;5.50;;
60068;SDS011;45945;53.350;55.922;2022-09-12T06:18:26;7.43;;;4.75;;
60068;SDS011;45945;53.350;55.922;2022-09-12T06:19:28;9.00;;;5.05;;
60068;SDS011;45945;53.350;55.922;2022-09-12T06:20:29;8.43;;;5.03;;
60068;SDS011;45945;53.350;55.922;2022-09-12T06:21:30;8.70;;;6.03;;
60068;SDS011;45945;53.350;55.922;2022-09-12T06:22:34;7.93;;;4.88;;
60068;SDS011;45945;53.350;55.922;2022-09-12T06:23:36;9.23;;;5.30;;
60068;SDS011;45945;53.350;55.922;2022-09-12T06:24:37;8.93;;;4.90;;
60068;SDS011;45945;53.350;55.922;2022-09-12T06:25:44;9.95;;;6.13;;
60068;SDS011;45945;53.350;55.922;2022-09-12T06:26:47;9.85;;;6.32;;
60068;SDS011;45945;53.350;55.922;2022-09-12T06:27:49;8.75;;;5.75;;
60068;SDS011;45945;53.350;55.922;2022-09-12T06:28:51;8.05;;;4.95;;
60068;SDS011;45945;53.350;55.922;2022-09-12T06:29:53;9.32;;;5.35;;
60068;SDS011;45945;53.350;55.922;2022-09-12T06:31:00;9.98;;;5.53;;
60068;SDS011;45945;53.350;55.922;2022-09-12T06:32:05;9.73;;;6.07;;
60068;SDS011;45945;53.350;55.922;2022-09-12T06:33:09;9.73;;;6.28;;
60068;SDS011;45945;53.350;55.922;2022-09-12T06:34:12;10.48;;;7.20;;
60068;SDS011;45945;53.350;55.922;2022-09-12T06:35:15;11.75;;;6.63;;
60068;SDS011;45945;53.350;55.922;2022-09-12T06:36:17;10.18;;;6.90;;
60068;SDS011;45945;53.350;55.922;2022-09-12T06:37:20;10.95;;;7.20;;
60068;SDS011;45945;53.350;55.922;2022-09-12T06:38:21;10.55;;;7.13;;
60068;SDS011;45945;53.350;55.922;2022-09-12T06:39:22;11.13;;;7.63;;
60068;SDS011;45945;53.350;55.922;2022-09-12T06:40:23;10.68;;;7.20;;
60068;SDS011;45945;53.350;55.922;2022-09-12T06:41:24;10.52;;;7.68;;
60068;SDS011;45945;53.350;55.922;2022-09-12T06:42:26;11.32;;;6.97;;
60068;SDS011;45945;53.350;55.922;2022-09-12T06:43:31;11.60;;;6.90;;
60068;SDS011;45945;53.350;55.922;2022-09-12T06:44:33;8.40;;;6.28;;
60068;SDS011;45945;53.350;55.922;2022-09-12T06:45:33;8.40;;;5.18;;
60068;SDS011;45945;53.350;55.922;2022-09-12T06:46:34;8.75;;;5.63;;
60068;SDS011;45945;53.350;55.922;2022-09-12T06:47:35;7.50;;;5.03;;
60068;SDS011;45945;53.350;55.922;2022-09-12T06:48:36;7.80;;;5.45;;
60068;SDS011;45945;53.350;55.922;2022-09-12T06:49:37;8.95;;;5.20;;
60068;SDS011;45945;53.350;55.922;2022-09-12T06:50:38;8.38;;;5.65;;
60068;SDS011;45945;53.350;55.922;2022-09-12T06:51:39;8.50;;;5.20;;
60068;SDS011;45945;53.350;55.922;2022-09-12T06:52:44;9.40;;;5.80;;
60068;SDS011;45945;53.350;55.922;2022-09-12T06:53:48;8.10;;;5.75;;
60068;SDS011;45945;53.350;55.922;2022-09-12T06:54:49;8.40;;;5.63;;
60068;SDS011;45945;53.350;55.922;2022-09-12T06:55:57;10.50;;;5.78;;
60068;SDS011;45945;53.350;55.922;2022-09-12T06:57:03;9.63;;;5.32;;
60068;SDS011;45945;53.350;55.922;2022-09-12T06:58:04;9.40;;;5.75;;
60068;SDS011;45945;53.350;55.922;2022-09-12T06:59:05;8.45;;;5.80;;
60068;SDS011;45945;53.350;55.922;2022-09-12T07:00:06;7.00;;;5.00;;
60068;SDS011;45945;53.350;55.922;2022-09-12T07:01:09;7.57;;;4.88;;
60068;SDS011;45945;53.350;55.922;2022-09-12T07:02:15;10.80;;;5.05;;
60068;SDS011;45945;53.350;55.922;2022-09-12T07:03:16;9.15;;;5.47;;
60068;SDS011;45945;53.350;55.922;2022-09-12T07:04:17;9.90;;;5.78;;
60068;SDS011;45945;53.350;55.922;2022-09-12T07:05:19;7.50;;;5.05;;
60068;SDS011;45945;53.350;55.922;2022-09-12T07:06:21;7.18;;;4.68;;
60068;SDS011;45945;53.350;55.922;2022-09-12T07:07:24;7.38;;;4.32;;
60068;SDS011;45945;53.350;55.922;2022-09-12T07:08:24;8.07;;;4.90;;
60068;SDS011;45945;53.350;55.922;2022-09-12T07:09:26;7.68;;;4.90;;
60068;SDS011;45945;53.350;55.922;2022-09-12T07:10:27;7.45;;;4.90;;